Time;durP1;ratioP1;P1;durP2;ratioP2;P2;SDS_P1;SDS_P2;PMS_P1;PMS_P2;Temp;Humidity;BMP_temperature;BMP_pressure;BME280_temperature;BME280_humidity;BME280_pressure;Samples;Min_cycle;Max_cycle;Signal;HPM_P1;HPM_P2
2022/12/10 00:00:36;;;;;;;;;;;;;;;29.07;26.98;100225.06;5017458;28;1209;-28
2022/12/10 00:03:01;;;;;;;;;;;;;;;28.81;27.20;100222.09;5017374;28;1168;-28
2022/12/10 00:05:26;;;;;;;;;;;;;;;28.66;27.05;100221.47;5017133;28;1509;-27
2022/12/10 00:07:52;;;;;;;;;;;;;;;29.07;26.96;100225.06;5017417;28;1207;-27
2022/12/10 00:10:17;;;;;;;;;;;;;;;28.82;27.05;100222.94;5010386;28;1887;-26
2022/12/10 00:12:42;;;;;;;;;;;;;;;29.00;26.76;100218.81;5017278;28;1120;-30
2022/12/10 00:15:08;;;;;;;;;;;;;;;28.96;26.62;100212.97;5017298;28;1116;-27
2022/12/10 00:17:33;;;;;;;;;;;;;;;28.46;27.57;100201.47;5017082;28;1236;-25
2022/12/10 00:19:58;;;;;;;;;;;;;;;28.92;27.12;100201.72;5017429;28;1144;-27
2022/12/10 00:22:23;;;;;;;;;;;;;;;28.80;27.04;100206.06;5016524;28;1152;-29
2022/12/10 00:24:49;;;;;;;;;;;;;;;28.75;26.70;100195.03;5017157;28;1120;-29
2022/12/10 00:27:14;;;;;;;;;;;;;;;29.09;26.66;100193.19;5016965;28;1133;-30
2022/12/10 00:29:39;;;;;;;;;;;;;;;28.78;27.13;100195.44;5016963;28;1226;-28
2022/12/10 00:32:05;;;;;;;;;;;;;;;28.77;26.94;100190.25;5017195;28;1902;-29
2022/12/10 00:34:31;;;;;;;;;;;;;;;29.13;26.51;100186.28;5016694;28;1160;-30
2022/12/10 00:36:56;;;;;;;;;;;;;;;28.83;26.97;100186.69;5017108;28;1116;-29
2022/12/10 00:39:21;;;;;;;;;;;;;;;29.06;26.79;100183.59;5017319;28;1266;-29
2022/12/10 00:41:47;;;;;;;;;;;;;;;28.91;26.85;100193.81;5016734;28;1144;-26
2022/12/10 00:44:12;;;;;;;;;;;;;;;28.67;26.81;100194.22;5016778;28;1192;-26
2022/12/10 00:46:38;;;;;;;;;;;;;;;29.03;26.60;100188.63;5015265;28;1124;-30
2022/12/10 00:49:03;;;;;;;;;;;;;;;28.76;26.88;100181.28;5004572;28;1116;-27
2022/12/10 00:51:28;;;;;;;;;;;;;;;28.64;26.75;100186.50;5016989;28;1899;-26
2022/12/10 00:53:54;;;;;;;;;;;;;;;29.00;26.82;100187.16;5017025;28;1128;-26
2022/12/10 00:56:21;;;;;;;;;;;;;;;28.59;27.36;100176.28;5016506;28;1207;-27
2022/12/10 00:58:46;;;;;;;;;;;;;;;28.61;26.79;100176.09;5015864;28;1171;-27
2022/12/10 01:01:13;;;;;;;;;;;;;;;29.17;26.32;100175.88;5016708;28;1361;-27
2022/12/10 01:03:38;;;;;;;;;;;;;;;28.72;27.18;100171.94;5015436;28;1247;-28
2022/12/10 01:06:13;;;;;;;;;;;;;;;28.80;26.92;100176.28;5016013;28;1204;-27
2022/12/10 01:08:39;;;;;;;;;;;;;;;29.12;26.73;100170.25;5016553;28;1164;-26
2022/12/10 01:11:04;;;;;;;;;;;;;;;29.31;26.25;100163.97;5015945;28;1886;-27
2022/12/10 01:13:30;;;;;;;;;;;;;;;29.47;26.03;100167.25;5016233;28;1152;-27
2022/12/10 01:15:55;;;;;;;;;;;;;;;29.46;26.12;100168.31;5015911;28;1160;-28
2022/12/10 01:18:20;;;;;;;;;;;;;;;29.38;26.33;100165.84;5016464;28;1230;-25
2022/12/10 01:20:45;;;;;;;;;;;;;;;28.99;27.07;100161.13;5016310;28;1168;-27
2022/12/10 01:23:11;;;;;;;;;;;;;;;28.94;26.85;100164.44;5016600;28;905;-27
2022/12/10 01:25:36;;;;;;;;;;;;;;;29.26;26.74;100152.94;5016380;28;1124;-28
2022/12/10 01:28:01;;;;;;;;;;;;;;;28.92;26.92;100157.56;5016268;28;1152;-26
2022/12/10 01:30:27;;;;;;;;;;;;;;;28.84;26.93;100147.78;5016373;28;1971;-26
2022/12/10 01:32:52;;;;;;;;;;;;;;;29.18;26.94;100153.16;5016422;28;1148;-28
2022/12/10 01:35:17;;;;;;;;;;;;;;;28.89;27.15;100148.00;5015917;28;1124;-30
2022/12/10 01:37:43;;;;;;;;;;;;;;;29.08;26.75;100132.78;5015739;28;1156;-29
2022/12/10 01:40:08;;;;;;;;;;;;;;;29.09;26.35;100131.72;5016376;28;1132;-26
2022/12/10 01:42:33;;;;;;;;;;;;;;;28.69;27.15;100142.59;5015825;28;1113;-28
2022/12/10 01:45:00;;;;;;;;;;;;;;;29.16;27.00;100137.13;5016292;28;1267;-27
2022/12/10 01:47:25;;;;;;;;;;;;;;;29.03;26.97;100131.75;5015493;28;1101;-27
2022/12/10 01:49:51;;;;;;;;;;;;;;;28.71;27.31;100126.97;5015989;28;1894;-31
2022/12/10 01:52:16;;;;;;;;;;;;;;;29.05;26.80;100125.06;5016516;28;1152;-28
2022/12/10 01:54:42;;;;;;;;;;;;;;;28.90;27.21;100121.72;5016206;28;1120;-26
2022/12/10 01:57:09;;;;;;;;;;;;;;;29.01;27.06;100123.81;5015594;28;1176;-28
2022/12/10 01:59:35;;;;;;;;;;;;;;;29.20;26.82;100114.00;5014196;28;851;-28
2022/12/10 02:02:03;;;;;;;;;;;;;;;28.75;27.25;100117.38;5015131;28;1149;-27
2022/12/10 02:04:58;;;;;;;;;;;;;;;29.03;26.92;100110.09;5015740;28;1191;-26
2022/12/10 02:07:42;;;;;;;;;;;;;;;28.97;27.22;100103.63;4996616;28;1363;-26
2022/12/10 02:10:30;;;;;;;;;;;;;;;28.81;26.77;100100.28;5017993;28;1894;-25
2022/12/10 02:13:04;;;;;;;;;;;;;;;29.20;26.67;100102.31;4999365;28;1416;-26
2022/12/10 02:15:32;;;;;;;;;;;;;;;28.79;27.42;100102.41;5019504;28;1344;-29
2022/12/10 02:18:05;;;;;;;;;;;;;;;29.11;26.94;100101.75;5018370;28;1173;-27
2022/12/10 02:20:31;;;;;;;;;;;;;;;29.11;26.34;100096.31;5019666;28;1264;-26
2022/12/10 02:23:12;;;;;;;;;;;;;;;28.87;27.04;100090.50;5018199;28;1129;-29
2022/12/10 02:25:40;;;;;;;;;;;;;;;29.31;26.48;100092.72;5019209;28;1112;-28
2022/12/10 02:28:12;;;;;;;;;;;;;;;28.99;27.00;100098.84;5019353;28;1136;-26
2022/12/10 02:30:37;;;;;;;;;;;;;;;28.98;26.77;100091.75;5018354;28;1910;-27
2022/12/10 02:33:02;;;;;;;;;;;;;;;29.20;26.48;100092.34;5018000;28;1533;-31
2022/12/10 02:35:28;;;;;;;;;;;;;;;28.78;27.07;100098.00;5017351;28;1406;-28
2022/12/10 02:37:56;;;;;;;;;;;;;;;29.05;26.97;100098.00;5018397;28;1153;-28
2022/12/10 02:40:26;;;;;;;;;;;;;;;29.00;26.48;100092.38;5017498;28;1204;-26
2022/12/10 02:42:51;;;;;;;;;;;;;;;28.72;26.89;100094.28;5017851;28;1200;-28
2022/12/10 02:45:17;;;;;;;;;;;;;;;29.09;26.74;100093.81;5019324;28;1140;-28
2022/12/10 02:47:42;;;;;;;;;;;;;;;28.94;26.96;100095.91;5018638;28;1164;-26
2022/12/10 02:50:08;;;;;;;;;;;;;;;28.98;26.84;100094.47;5018436;28;1898;-30
2022/12/10 02:52:33;;;;;;;;;;;;;;;29.23;26.53;100090.25;5017855;28;1239;-27
2022/12/10 02:54:58;;;;;;;;;;;;;;;28.76;27.34;100085.75;5019021;28;1227;-28
2022/12/10 02:57:35;;;;;;;;;;;;;;;28.94;26.76;100077.81;5018834;28;1176;-26
2022/12/10 03:00:04;;;;;;;;;;;;;;;29.11;26.61;100081.94;5017105;28;1184;-27
2022/12/10 03:02:49;;;;;;;;;;;;;;;28.87;27.11;100086.97;5004927;28;1176;-30
2022/12/10 03:05:15;;;;;;;;;;;;;;;29.14;26.45;100073.41;5011383;28;1342;-30
2022/12/10 03:07:48;;;;;;;;;;;;;;;29.01;26.74;100069.66;5018809;28;1223;-27
2022/12/10 03:10:23;;;;;;;;;;;;;;;28.93;26.92;100067.16;5018153;28;1890;-28
2022/12/10 03:12:48;;;;;;;;;;;;;;;29.07;26.62;100066.13;5005377;28;903;-27
2022/12/10 03:15:14;;;;;;;;;;;;;;;28.92;26.85;100066.34;5017294;28;1112;-30
2022/12/10 03:17:39;;;;;;;;;;;;;;;29.24;26.56;100073.78;5017066;28;1218;-28
2022/12/10 03:20:08;;;;;;;;;;;;;;;28.94;26.73;100076.97;5016224;28;1197;-25
2022/12/10 03:22:33;;;;;;;;;;;;;;;28.87;26.90;100073.44;5017250;28;1200;-28
2022/12/10 03:24:58;;;;;;;;;;;;;;;29.16;26.79;100084.84;5017020;28;1021;-28
2022/12/10 03:27:24;;;;;;;;;;;;;;;28.98;26.71;100077.41;5016915;28;1104;-27
2022/12/10 03:29:50;;;;;;;;;;;;;;;29.13;26.59;100082.56;5018438;28;1304;-26
2022/12/10 03:32:15;;;;;;;;;;;;;;;29.02;26.77;100079.47;5016661;28;1977;-30
2022/12/10 03:34:41;;;;;;;;;;;;;;;28.82;26.70;100079.47;5016728;28;1173;-27
2022/12/10 03:37:06;;;;;;;;;;;;;;;29.18;26.72;100064.63;5016777;28;1018;-26
2022/12/10 03:39:32;;;;;;;;;;;;;;;28.96;26.87;100064.88;5016924;28;1129;-29
2022/12/10 03:41:57;;;;;;;;;;;;;;;28.87;26.85;100063.44;5016386;28;1168;-28
2022/12/10 03:44:32;;;;;;;;;;;;;;;29.28;26.40;100057.94;5017977;28;1156;-26
2022/12/10 03:46:58;;;;;;;;;;;;;;;28.89;27.03;100058.66;5017924;28;1143;-26
2022/12/10 03:49:23;;;;;;;;;;;;;;;29.05;26.91;100064.66;5009243;28;861;-30
2022/12/10 03:51:48;;;;;;;;;;;;;;;29.09;26.62;100061.31;5017205;28;1914;-27
2022/12/10 03:54:14;;;;;;;;;;;;;;;28.90;26.71;100059.47;5017915;28;1199;-28
2022/12/10 03:56:39;;;;;;;;;;;;;;;29.22;26.65;100051.50;5017631;28;1171;-27
2022/12/10 03:59:04;;;;;;;;;;;;;;;28.99;26.93;100044.69;5017657;28;1168;-29
2022/12/10 04:01:29;;;;;;;;;;;;;;;28.95;26.85;100046.13;5005638;28;949;-27
2022/12/10 04:03:55;;;;;;;;;;;;;;;29.21;26.66;100044.41;5014933;28;1199;-27
2022/12/10 04:06:20;;;;;;;;;;;;;;;28.75;27.20;100040.75;5017703;28;1238;-27
2022/12/10 04:08:45;;;;;;;;;;;;;;;29.02;26.65;100035.31;5017520;28;1184;-29
2022/12/10 04:11:11;;;;;;;;;;;;;;;29.04;26.22;100041.34;5017351;28;1983;-28
2022/12/10 04:16:26;;;;;;;;;;;;;;;29.17;26.53;100040.47;5005392;28;1230;-27
2022/12/10 04:18:51;;;;;;;;;;;;;;;28.87;27.08;100040.94;5017693;28;1175;-23
2022/12/10 04:26:53;;;;;;;;;;;;;;;27.53;29.66;100043.38;5016875;28;1176;-24
2022/12/10 04:29:28;;;;;;;;;;;;;;;26.92;30.50;100038.50;5017196;28;1148;-23
2022/12/10 04:31:53;;;;;;;;;;;;;;;26.68;30.92;100040.63;5016376;28;1914;-25
2022/12/10 04:34:19;;;;;;;;;;;;;;;26.55;31.11;100035.97;5016738;28;1175;-23
2022/12/10 04:36:44;;;;;;;;;;;;;;;26.15;32.16;100031.06;5016557;28;857;-24
2022/12/10 04:39:11;;;;;;;;;;;;;;;25.96;32.53;100029.88;5016697;28;1208;-24
2022/12/10 04:41:37;;;;;;;;;;;;;;;25.99;32.84;100035.69;5016558;28;1180;-26
2022/12/10 04:44:02;;;;;;;;;;;;;;;25.98;32.51;100035.88;5017070;28;1136;-26
2022/12/10 04:46:28;;;;;;;;;;;;;;;25.97;32.61;100026.16;5016666;28;1140;-26
2022/12/10 04:48:53;;;;;;;;;;;;;;;26.37;31.93;100029.22;5011838;28;945;-25
2022/12/10 04:51:18;;;;;;;;;;;;;;;26.74;30.99;100022.84;5016380;28;1910;-30
2022/12/10 04:53:44;;;;;;;;;;;;;;;26.82;31.00;100033.47;5016238;28;1168;-25
2022/12/10 04:56:09;;;;;;;;;;;;;;;26.75;30.80;100040.69;5016608;28;1219;-25
2022/12/10 04:58:34;;;;;;;;;;;;;;;26.93;30.96;100045.56;5017112;28;1132;-24
2022/12/10 05:01:06;;;;;;;;;;;;;;;26.98;30.62;100036.84;5016755;28;1156;-26
2022/12/10 05:03:31;;;;;;;;;;;;;;;27.11;30.68;100039.66;5016509;28;1176;-24
2022/12/10 05:06:00;;;;;;;;;;;;;;;26.97;30.98;100036.03;5016417;28;1152;-27
2022/12/10 05:08:26;;;;;;;;;;;;;;;26.76;31.08;100036.94;5016982;28;1152;-28
2022/12/10 05:10:51;;;;;;;;;;;;;;;26.31;32.42;100039.94;5016728;28;1906;-26
2022/12/10 05:13:16;;;;;;;;;;;;;;;26.16;32.64;100043.50;5016298;28;1223;-24
2022/12/10 05:15:41;;;;;;;;;;;;;;;26.29;32.28;100050.91;5016194;28;1191;-23
2022/12/10 05:18:07;;;;;;;;;;;;;;;26.10;32.84;100052.38;5016586;28;1286;-23
2022/12/10 05:20:32;;;;;;;;;;;;;;;26.26;32.56;100062.06;5016321;28;1215;-23
2022/12/10 05:25:52;;;;;;;;;;;;;;;26.33;32.02;100054.91;5015634;28;968;-23
2022/12/10 05:28:26;;;;;;;;;;;;;;;26.15;32.69;100053.47;5016116;28;1223;-24
2022/12/10 05:30:52;;;;;;;;;;;;;;;26.04;32.52;100049.44;5016462;28;1922;-27
2022/12/10 05:33:17;;;;;;;;;;;;;;;25.75;33.24;100056.63;5016207;28;1180;-23
2022/12/10 05:35:42;;;;;;;;;;;;;;;25.90;32.84;100059.25;5016151;28;1136;-24
2022/12/10 05:38:08;;;;;;;;;;;;;;;26.01;32.98;100052.50;5016133;28;955;-23
2022/12/10 05:40:36;;;;;;;;;;;;;;;26.19;32.35;100050.41;5016063;28;1246;-24
2022/12/10 05:43:01;;;;;;;;;;;;;;;26.33;31.46;100041.41;5016533;28;1211;-24
2022/12/10 05:45:27;;;;;;;;;;;;;;;26.57;31.05;100047.41;5019173;28;1167;-23
2022/12/10 05:47:52;;;;;;;;;;;;;;;26.87;30.36;100051.75;5019265;28;1172;-23
2022/12/10 05:50:17;;;;;;;;;;;;;;;26.92;30.28;100049.28;5019607;28;1902;-24
2022/12/10 05:52:43;;;;;;;;;;;;;;;26.90;30.28;100057.59;5020142;28;1132;-28
2022/12/10 05:55:08;;;;;;;;;;;;;;;26.64;30.06;100058.25;5019529;28;1168;-26
2022/12/10 05:57:33;;;;;;;;;;;;;;;26.11;31.51;100068.34;5020377;28;1187;-22
2022/12/10 05:59:59;;;;;;;;;;;;;;;26.12;31.56;100059.25;5017250;28;1294;-22
2022/12/10 06:02:24;;;;;;;;;;;;;;;26.09;31.66;100065.00;5019169;28;873;-22
2022/12/10 06:04:49;;;;;;;;;;;;;;;25.66;32.93;100065.81;5019381;28;1242;-22
2022/12/10 06:07:15;;;;;;;;;;;;;;;26.10;32.42;100055.91;5019498;28;1136;-26
2022/12/10 06:09:40;;;;;;;;;;;;;;;26.63;30.99;100046.63;5018965;28;1124;-28
2022/12/10 06:12:05;;;;;;;;;;;;;;;26.64;30.87;100056.38;5000396;28;1907;-24
2022/12/10 06:14:31;;;;;;;;;;;;;;;26.83;31.05;100058.56;4999712;28;1346;-24
2022/12/10 06:16:56;;;;;;;;;;;;;;;26.86;30.42;100056.31;4998855;28;1294;-24
2022/12/10 06:19:21;;;;;;;;;;;;;;;26.62;30.37;100066.53;4999443;28;1275;-24
2022/12/10 06:21:46;;;;;;;;;;;;;;;26.61;30.41;100061.34;4999267;28;1231;-26
2022/12/10 06:24:12;;;;;;;;;;;;;;;26.43;30.96;100061.81;4998892;28;1196;-23
2022/12/10 06:26:37;;;;;;;;;;;;;;;26.63;30.55;100062.81;4999384;28;2362;-23
2022/12/10 06:29:04;;;;;;;;;;;;;;;26.87;30.74;100063.38;4999569;28;1251;-23
2022/12/10 06:31:29;;;;;;;;;;;;;;;26.96;30.66;100057.84;4998945;28;1965;-23
2022/12/10 06:33:55;;;;;;;;;;;;;;;26.97;31.00;100056.78;4999005;28;1216;-25
2022/12/10 06:36:20;;;;;;;;;;;;;;;26.87;30.88;100062.56;4999127;28;1243;-26
2022/12/10 06:38:45;;;;;;;;;;;;;;;26.80;30.89;100072.44;5009195;28;986;-25
2022/12/10 06:41:11;;;;;;;;;;;;;;;26.92;30.43;100065.50;5018893;28;1093;-23
2022/12/10 06:43:37;;;;;;;;;;;;;;;26.73;30.64;100069.72;5018903;28;1089;-23
2022/12/10 06:46:12;;;;;;;;;;;;;;;26.70;30.74;100062.84;5018906;28;1232;-25
2022/12/10 06:48:37;;;;;;;;;;;;;;;26.60;30.74;100067.75;5008777;28;1291;-24
2022/12/10 06:51:03;;;;;;;;;;;;;;;26.57;30.98;100065.47;5010705;28;1890;-24
2022/12/10 06:53:28;;;;;;;;;;;;;;;26.56;31.63;100071.88;5009593;28;1136;-24
2022/12/10 06:55:53;;;;;;;;;;;;;;;26.53;31.58;100075.78;5016433;28;2318;-27
2022/12/10 06:58:18;;;;;;;;;;;;;;;26.53;31.20;100073.94;5018598;28;1159;-25
2022/12/10 07:00:44;;;;;;;;;;;;;;;26.45;31.43;100071.38;5018096;28;1108;-25
2022/12/10 07:03:09;;;;;;;;;;;;;;;26.36;31.75;100067.16;5018360;28;1188;-26
2022/12/10 07:05:34;;;;;;;;;;;;;;;26.35;31.60;100058.25;5018707;28;1144;-25
2022/12/10 07:08:00;;;;;;;;;;;;;;;26.39;31.70;100064.91;5018099;28;1249;-25
2022/12/10 07:10:25;;;;;;;;;;;;;;;26.50;30.53;100060.84;5018554;28;1952;-25
2022/12/10 07:12:50;;;;;;;;;;;;;;;26.30;31.86;100052.56;5017942;28;1176;-25
2022/12/10 07:15:15;;;;;;;;;;;;;;;26.43;31.63;100051.03;5017961;28;1100;-23
2022/12/10 07:17:41;;;;;;;;;;;;;;;26.68;30.24;100054.13;5017238;28;1312;-24
2022/12/10 07:20:07;;;;;;;;;;;;;;;26.63;30.77;100051.16;4998652;28;1191;-27
2022/12/10 07:22:32;;;;;;;;;;;;;;;26.84;30.48;100050.28;4997981;28;1247;-25
2022/12/10 07:24:57;;;;;;;;;;;;;;;26.90;30.82;100046.78;4998098;28;1216;-26
2022/12/10 07:27:22;;;;;;;;;;;;;;;26.80;31.01;100054.41;4999810;28;2569;-24
2022/12/10 07:29:48;;;;;;;;;;;;;;;26.80;30.73;100057.09;5016188;28;1223;-27
2022/12/10 07:32:13;;;;;;;;;;;;;;;26.70;31.09;100062.00;5017255;28;1906;-24
2022/12/10 07:34:38;;;;;;;;;;;;;;;26.55;30.47;100056.72;5017844;28;1112;-25
2022/12/10 07:37:04;;;;;;;;;;;;;;;26.71;31.06;100055.59;5017334;28;1211;-26
2022/12/10 07:39:29;;;;;;;;;;;;;;;26.87;30.65;100057.16;5012371;28;1124;-25
2022/12/10 07:41:54;;;;;;;;;;;;;;;26.96;30.53;100053.25;5009666;28;1163;-29
2022/12/10 07:44:20;;;;;;;;;;;;;;;27.00;30.60;100049.13;5017640;28;1136;-25
2022/12/10 07:46:46;;;;;;;;;;;;;;;26.95;30.62;100040.78;5017382;28;1152;-24
2022/12/10 07:49:11;;;;;;;;;;;;;;;26.95;30.25;100038.09;5016855;28;1148;-27
2022/12/10 07:51:37;;;;;;;;;;;;;;;26.79;30.14;100041.97;5007432;28;1972;-25
2022/12/10 07:54:02;;;;;;;;;;;;;;;27.30;29.71;100037.25;5014019;28;1109;-24
2022/12/10 07:56:27;;;;;;;;;;;;;;;26.81;30.32;100033.66;5011473;28;1858;-25
2022/12/10 07:58:53;;;;;;;;;;;;;;;26.53;30.77;100036.19;5011737;28;1116;-24
2022/12/10 08:01:22;;;;;;;;;;;;;;;27.25;29.87;100037.00;5016700;28;1111;-24
2022/12/10 08:03:47;;;;;;;;;;;;;;;26.75;30.21;100030.72;5017406;28;1120;-24
2022/12/10 08:06:14;;;;;;;;;;;;;;;27.17;30.52;100029.94;5016757;28;1258;-26
2022/12/10 08:08:39;;;;;;;;;;;;;;;27.77;28.56;100025.78;5016521;28;1179;-24
2022/12/10 08:11:04;;;;;;;;;;;;;;;27.07;29.90;100022.22;5017295;28;1967;-26
2022/12/10 08:13:30;;;;;;;;;;;;;;;27.71;29.22;100022.00;5016968;28;1211;-25
2022/12/10 08:16:02;;;;;;;;;;;;;;;27.64;29.19;100026.56;5016800;28;1100;-28
2022/12/10 08:18:27;;;;;;;;;;;;;;;27.14;29.78;100024.94;5017139;28;1109;-24
2022/12/10 08:20:53;;;;;;;;;;;;;;;27.84;29.10;100028.50;5016853;28;1152;-27
2022/12/10 08:23:18;;;;;;;;;;;;;;;27.69;28.73;100016.00;5017038;28;1128;-25
2022/12/10 08:25:43;;;;;;;;;;;;;;;27.33;29.71;100009.84;5002420;28;2331;-28
2022/12/10 08:28:09;;;;;;;;;;;;;;;27.91;29.46;100023.09;5006509;28;1140;-24
2022/12/10 08:30:34;;;;;;;;;;;;;;;27.59;29.20;100019.03;5016270;28;1902;-26
2022/12/10 08:32:59;;;;;;;;;;;;;;;27.13;29.86;100010.59;5016787;28;1167;-25
2022/12/10 08:35:25;;;;;;;;;;;;;;;27.94;29.35;100017.28;5016746;28;1128;-26
2022/12/10 08:37:50;;;;;;;;;;;;;;;27.53;29.26;100008.25;5011962;28;1243;-26
2022/12/10 08:40:16;;;;;;;;;;;;;;;27.13;29.98;100001.66;5007855;28;1171;-26
2022/12/10 08:42:41;;;;;;;;;;;;;;;28.02;28.93;100002.72;5016536;28;1113;-26
2022/12/10 08:45:07;;;;;;;;;;;;;;;27.55;29.33;99993.50;5016693;28;1202;-29
2022/12/10 08:47:32;;;;;;;;;;;;;;;27.16;29.63;99989.63;5016305;28;1148;-29
2022/12/10 08:49:57;;;;;;;;;;;;;;;27.95;29.17;99992.75;5016190;28;1109;-27
2022/12/10 08:52:22;;;;;;;;;;;;;;;27.52;29.30;99985.78;5013658;28;1898;-25
2022/12/10 08:54:48;;;;;;;;;;;;;;;27.18;29.52;99980.28;5004277;28;1180;-26
2022/12/10 08:57:13;;;;;;;;;;;;;;;28.03;28.93;99991.69;5016315;28;2214;-25
2022/12/10 08:59:38;;;;;;;;;;;;;;;27.42;29.08;99982.66;5016676;28;1152;-27
2022/12/10 09:02:03;;;;;;;;;;;;;;;27.07;29.91;99975.47;5016153;28;1163;-27
2022/12/10 09:04:29;;;;;;;;;;;;;;;28.10;28.87;99978.19;5002542;28;1104;-27
2022/12/10 09:06:54;;;;;;;;;;;;;;;27.46;29.14;99975.81;5016077;28;1203;-26
2022/12/10 09:09:19;;;;;;;;;;;;;;;27.10;29.63;99965.13;5016506;28;1140;-27
2022/12/10 09:11:45;;;;;;;;;;;;;;;27.94;28.72;99969.47;5016157;28;1901;-28
2022/12/10 09:14:11;;;;;;;;;;;;;;;27.32;29.71;99958.75;5016331;28;1125;-26
2022/12/10 09:16:36;;;;;;;;;;;;;;;27.54;29.47;99970.22;5002235;28;1159;-26
2022/12/10 09:19:02;;;;;;;;;;;;;;;27.85;28.82;99962.59;5016184;28;1187;-28
2022/12/10 09:21:27;;;;;;;;;;;;;;;27.31;29.44;99960.59;5016133;28;1128;-25
2022/12/10 09:23:52;;;;;;;;;;;;;;;27.66;29.45;99959.63;5015963;28;1093;-29
2022/12/10 09:26:18;;;;;;;;;;;;;;;27.57;29.15;99960.88;5015513;28;2320;-26
2022/12/10 09:28:43;;;;;;;;;;;;;;;27.19;29.81;99952.28;5015920;28;1168;-27
2022/12/10 09:31:09;;;;;;;;;;;;;;;27.84;29.22;99959.03;5015714;28;1907;-25
2022/12/10 09:33:34;;;;;;;;;;;;;;;27.55;29.25;99954.81;5015893;28;1171;-27
2022/12/10 09:35:59;;;;;;;;;;;;;;;27.17;29.49;99948.94;5016302;28;1093;-27
2022/12/10 09:38:25;;;;;;;;;;;;;;;27.86;29.35;99940.75;5015711;28;1213;-26
2022/12/10 09:40:53;;;;;;;;;;;;;;;27.44;29.35;99940.06;5015996;28;1077;-27
2022/12/10 09:43:23;;;;;;;;;;;;;;;27.07;29.87;99925.03;5001863;28;1187;-24
2022/12/10 09:45:51;;;;;;;;;;;;;;;28.00;28.66;99927.25;5014842;28;1117;-25
2022/12/10 09:48:16;;;;;;;;;;;;;;;27.28;29.44;99920.50;5015751;28;1206;-24
2022/12/10 09:50:51;;;;;;;;;;;;;;;26.94;30.08;99903.34;5015313;28;1977;-26
2022/12/10 09:53:17;;;;;;;;;;;;;;;27.70;29.02;99906.88;5015004;28;1128;-27
2022/12/10 09:55:43;;;;;;;;;;;;;;;27.18;29.71;99907.41;5015200;28;1334;-28
2022/12/10 09:58:08;;;;;;;;;;;;;;;27.68;29.67;99899.97;5014787;28;1329;-24
2022/12/10 10:00:34;;;;;;;;;;;;;;;27.63;28.83;99903.28;5013885;28;1330;-25
2022/12/10 10:02:59;;;;;;;;;;;;;;;27.18;29.72;99887.66;5011974;28;1306;-28
2022/12/10 10:05:25;;;;;;;;;;;;;;;27.75;29.64;99890.03;5015246;28;1231;-27
2022/12/10 10:07:54;;;;;;;;;;;;;;;27.39;29.23;99878.56;5013671;28;1377;-26
2022/12/10 10:10:49;;;;;;;;;;;;;;;27.07;29.86;99895.34;5015580;28;1969;-27
2022/12/10 10:13:27;;;;;;;;;;;;;;;28.05;28.95;99880.66;5010411;28;1350;-28
2022/12/10 10:15:52;;;;;;;;;;;;;;;27.36;29.10;99881.69;5014051;28;1230;-26
2022/12/10 10:18:23;;;;;;;;;;;;;;;27.65;29.93;99873.38;5015114;28;1180;-25
2022/12/10 10:20:49;;;;;;;;;;;;;;;27.98;28.45;99873.38;5015074;28;1147;-26
2022/12/10 10:23:14;;;;;;;;;;;;;;;27.69;28.68;99870.09;5014220;28;1180;-24
2022/12/10 10:25:39;;;;;;;;;;;;;;;28.32;28.69;99861.66;5015255;28;1074;-25
2022/12/10 10:28:05;;;;;;;;;;;;;;;28.06;28.19;99860.69;5005295;28;2456;-27
2022/12/10 10:30:30;;;;;;;;;;;;;;;28.02;28.19;99852.19;5014282;28;1902;-27
2022/12/10 10:32:56;;;;;;;;;;;;;;;28.42;28.10;99853.97;5018819;28;1140;-25
2022/12/10 10:35:26;;;;;;;;;;;;;;;27.96;28.42;99848.44;5017173;28;1211;-24
2022/12/10 10:37:51;;;;;;;;;;;;;;;28.24;28.92;99849.22;5018434;28;1162;-24
2022/12/10 10:40:25;;;;;;;;;;;;;;;28.60;27.90;99838.91;5017129;28;1334;-23
2022/12/10 10:42:51;;;;;;;;;;;;;;;28.20;28.26;99834.44;5017317;28;1298;-24
2022/12/10 10:45:35;;;;;;;;;;;;;;;28.29;28.11;99840.44;5016700;28;1461;-23
2022/12/10 10:48:04;;;;;;;;;;;;;;;28.73;27.60;99838.84;5018429;28;1266;-26
2022/12/10 10:50:29;;;;;;;;;;;;;;;28.67;27.59;99833.47;5018718;28;1971;-24
2022/12/10 10:52:54;;;;;;;;;;;;;;;28.66;28.08;99826.41;5017791;28;1297;-24
2022/12/10 10:55:35;;;;;;;;;;;;;;;28.73;28.29;99825.31;5017170;28;1086;-25
2022/12/10 10:58:00;;;;;;;;;;;;;;;28.68;27.55;99827.81;5016888;28;2665;-25
2022/12/10 11:00:25;;;;;;;;;;;;;;;28.79;27.78;99820.06;5016476;28;1346;-24
2022/12/10 11:02:51;;;;;;;;;;;;;;;28.76;27.89;99812.38;5014806;28;1456;-28
2022/12/10 11:05:26;;;;;;;;;;;;;;;28.85;27.63;99817.31;5015294;28;1329;-25
2022/12/10 11:07:58;;;;;;;;;;;;;;;28.36;27.97;99809.66;5017952;28;1348;-26
2022/12/10 11:10:23;;;;;;;;;;;;;;;28.49;28.03;99813.38;5016716;28;1902;-23
2022/12/10 11:12:56;;;;;;;;;;;;;;;28.99;27.90;99814.56;5016783;28;1403;-23
2022/12/10 11:15:21;;;;;;;;;;;;;;;28.91;27.46;99815.63;5014672;28;1345;-23
2022/12/10 11:17:47;;;;;;;;;;;;;;;28.92;27.66;99813.75;5017872;28;1334;-24
2022/12/10 11:20:19;;;;;;;;;;;;;;;29.06;27.72;99809.13;5017575;28;1282;-24
2022/12/10 11:22:51;;;;;;;;;;;;;;;28.75;27.33;99810.72;5015827;28;1263;-23
2022/12/10 11:25:16;;;;;;;;;;;;;;;28.46;27.85;99803.78;5017871;28;1318;-24
2022/12/10 11:27:49;;;;;;;;;;;;;;;29.03;27.87;99799.53;5016148;28;2196;-24
2022/12/10 11:30:19;;;;;;;;;;;;;;;28.82;27.31;99796.13;5016200;28;1906;-23
2022/12/10 11:33:03;;;;;;;;;;;;;;;28.53;27.89;99792.13;5014405;28;1219;-23
2022/12/10 11:35:47;;;;;;;;;;;;;;;28.81;27.81;99786.31;4998551;28;1200;-24
2022/12/10 11:38:20;;;;;;;;;;;;;;;28.92;27.25;99782.09;5016537;28;1188;-23
2022/12/10 11:40:45;;;;;;;;;;;;;;;28.67;27.71;99782.88;5009638;28;830;-23
2022/12/10 11:43:25;;;;;;;;;;;;;;;29.07;27.19;99778.28;5017484;28;1092;-24
2022/12/10 11:45:51;;;;;;;;;;;;;;;29.25;27.10;99774.78;5017270;28;1219;-24
2022/12/10 11:48:17;;;;;;;;;;;;;;;28.77;27.58;99768.03;5017327;28;1167;-23
2022/12/10 11:50:42;;;;;;;;;;;;;;;28.86;27.43;99774.84;5016711;28;1902;-23
2022/12/10 11:53:07;;;;;;;;;;;;;;;29.21;27.63;99774.41;5004630;28;909;-23
2022/12/10 11:55:38;;;;;;;;;;;;;;;28.94;27.31;99773.75;5016178;28;1149;-23
2022/12/10 11:58:36;;;;;;;;;;;;;;;28.79;27.39;99772.19;5009534;28;2647;-23
2022/12/10 12:01:19;;;;;;;;;;;;;;;29.09;27.03;99768.88;5005067;28;1094;-24
2022/12/10 12:03:54;;;;;;;;;;;;;;;28.93;27.37;99770.22;5015095;28;1179;-23
2022/12/10 12:06:27;;;;;;;;;;;;;;;28.67;27.92;99766.66;5007012;28;1111;-23
2022/12/10 12:08:52;;;;;;;;;;;;;;;29.13;27.57;99773.88;5015867;28;1147;-23
2022/12/10 12:11:36;;;;;;;;;;;;;;;29.13;27.80;99768.44;5016915;28;1894;-23
2022/12/10 12:14:04;;;;;;;;;;;;;;;28.65;27.71;99765.19;5016796;28;1156;-26
2022/12/10 12:16:31;;;;;;;;;;;;;;;28.87;27.53;99772.97;5016557;28;1137;-24
2022/12/10 12:18:57;;;;;;;;;;;;;;;29.31;27.48;99776.59;5016472;28;1120;-24
2022/12/10 12:21:22;;;;;;;;;;;;;;;28.64;27.49;99786.03;5017076;28;1191;-23
2022/12/10 12:23:52;;;;;;;;;;;;;;;28.36;27.87;99777.19;5017219;28;1151;-25
2022/12/10 12:26:17;;;;;;;;;;;;;;;28.96;27.71;99782.50;5012312;28;2393;-24
2022/12/10 12:29:05;;;;;;;;;;;;;;;28.55;27.86;99785.44;5016451;28;1426;-22
2022/12/10 12:31:34;;;;;;;;;;;;;;;28.14;28.69;99782.06;5015163;28;1910;-25
2022/12/10 12:34:01;;;;;;;;;;;;;;;28.88;27.91;99778.16;5015444;28;1185;-23
2022/12/10 12:36:30;;;;;;;;;;;;;;;28.68;27.64;99765.59;5016811;28;1127;-23
2022/12/10 12:39:06;;;;;;;;;;;;;;;28.39;27.88;99765.13;5016415;28;1326;-25
2022/12/10 12:41:34;;;;;;;;;;;;;;;28.93;28.03;99767.50;5002573;28;980;-24
2022/12/10 12:44:25;;;;;;;;;;;;;;;28.60;27.78;99755.84;5003827;28;1129;-26
2022/12/10 12:46:50;;;;;;;;;;;;;;;28.29;28.12;99746.63;4994441;28;1237;-24
2022/12/10 12:49:36;;;;;;;;;;;;;;;28.87;27.83;99741.31;5005717;28;1108;-23
2022/12/10 12:52:04;;;;;;;;;;;;;;;28.31;28.35;99738.31;5015415;28;1898;-23
2022/12/10 12:54:29;;;;;;;;;;;;;;;27.87;28.79;99745.13;5015893;28;1195;-25
2022/12/10 12:57:13;;;;;;;;;;;;;;;28.69;28.37;99744.78;5015857;28;2345;-24
2022/12/10 12:59:51;;;;;;;;;;;;;;;28.14;29.07;99732.56;5013225;28;1152;-23
2022/12/10 13:02:35;;;;;;;;;;;;;;;27.72;29.69;99734.56;5016230;28;1092;-25